createdAt,value
2019-04-14T00:01:13.240Z,4.70
2019-04-14T00:04:05.283Z,4.60
2019-04-14T00:06:41.905Z,4.60
2019-04-14T00:09:20.462Z,4.70
2019-04-14T00:11:56.822Z,4.60
2019-04-14T00:14:31.691Z,4.60
2019-04-14T00:17:06.621Z,4.60
2019-04-14T00:19:41.370Z,4.70
2019-04-14T00:22:16.305Z,4.70
2019-04-14T00:24:51.133Z,4.70
2019-04-14T00:27:25.964Z,4.70
2019-04-14T00:30:01.154Z,4.70
2019-04-14T00:32:44.454Z,4.80
2019-04-14T00:35:29.915Z,4.80
2019-04-14T00:38:17.417Z,5.00
2019-04-14T00:41:18.001Z,4.90
2019-04-14T00:44:12.699Z,4.90
2019-04-14T00:46:54.199Z,4.90
2019-04-14T00:49:29.191Z,4.80
2019-04-14T00:52:04.099Z,4.80
2019-04-14T00:54:39.378Z,4.80
2019-04-14T00:57:14.290Z,4.80
2019-04-14T00:59:49.098Z,4.90
2019-04-14T01:02:23.889Z,4.80
2019-04-14T01:05:00.026Z,4.90
2019-04-14T01:07:35.031Z,4.90
2019-04-14T01:10:10.409Z,5.00
2019-04-14T01:12:45.368Z,5.00
2019-04-14T01:15:20.156Z,4.90
2019-04-14T01:17:54.999Z,4.90
2019-04-14T01:20:29.832Z,4.90
2019-04-14T01:23:04.738Z,4.70
2019-04-14T01:25:39.447Z,4.70
2019-04-14T01:28:14.175Z,4.80
2019-04-14T01:30:50.037Z,4.70
2019-04-14T01:33:25.048Z,4.70
2019-04-14T01:35:59.963Z,4.60
2019-04-14T01:38:34.706Z,4.50
2019-04-14T01:41:10.589Z,4.50
2019-04-14T01:43:45.530Z,4.50
2019-04-14T01:46:25.770Z,4.60
2019-04-14T01:48:56.755Z,4.50
2019-04-14T01:51:50.711Z,4.50
2019-04-14T01:54:34.764Z,4.60
2019-04-14T01:57:28.433Z,4.60
2019-04-14T02:00:22.751Z,4.70
2019-04-14T02:02:57.741Z,4.60
2019-04-14T02:05:32.458Z,4.60
2019-04-14T02:08:07.291Z,4.60
2019-04-14T02:10:43.362Z,4.70
2019-04-14T02:13:18.395Z,4.70
2019-04-14T02:15:53.242Z,4.60
2019-04-14T02:18:27.989Z,4.60
2019-04-14T02:21:02.789Z,4.60
2019-04-14T02:23:38.669Z,4.70
2019-04-14T02:26:13.575Z,4.70
2019-04-14T02:28:48.349Z,4.80
2019-04-14T02:31:43.308Z,4.70
2019-04-14T02:34:34.194Z,4.70
2019-04-14T02:37:08.357Z,4.80
2019-04-14T02:39:38.638Z,4.60
2019-04-14T02:42:34.323Z,4.60
2019-04-14T02:47:48.898Z,4.60
2019-04-14T02:50:08.743Z,4.70
2019-04-14T02:52:41.576Z,4.60
2019-04-14T02:55:15.845Z,4.60
2019-04-14T02:57:52.843Z,4.60
2019-04-14T03:00:49.017Z,4.60
2019-04-14T03:03:10.585Z,4.50
2019-04-14T03:08:29.424Z,4.60
2019-04-14T03:11:04.023Z,4.60
2019-04-14T03:13:35.139Z,4.60
2019-04-14T03:16:17.543Z,4.60
2019-04-14T03:19:20.444Z,4.60
2019-04-14T03:22:12.577Z,4.70
2019-04-14T03:24:46.616Z,4.70
2019-04-14T03:33:54.312Z,4.60
2019-04-14T03:36:20.971Z,4.50
2019-04-14T03:41:17.441Z,4.50
2019-04-14T03:43:43.075Z,4.50
2019-04-14T03:46:25.451Z,4.60
2019-04-14T03:49:06.281Z,4.60
2019-04-14T03:51:55.838Z,4.50
2019-04-14T03:54:11.036Z,4.50
2019-04-14T03:56:46.772Z,4.50
2019-04-14T03:59:22.011Z,4.50
2019-04-14T04:01:58.611Z,4.50
2019-04-14T04:04:33.779Z,4.50
2019-04-14T04:07:08.556Z,4.50
2019-04-14T04:09:54.624Z,4.50
2019-04-14T04:12:29.429Z,4.50
2019-04-14T04:15:04.701Z,4.50
2019-04-14T04:17:51.668Z,4.50
2019-04-14T04:20:52.437Z,4.50
2019-04-14T04:23:36.228Z,4.50
2019-04-14T04:26:19.507Z,4.60
2019-04-14T04:29:11.226Z,4.50
2019-04-14T04:32:05.702Z,4.50
2019-04-14T04:34:59.939Z,4.40
2019-04-14T04:37:39.230Z,4.50
2019-04-14T04:40:20.675Z,4.60
2019-04-14T04:42:55.452Z,4.60
2019-04-14T04:45:30.179Z,4.70
2019-04-14T04:48:05.042Z,4.60
2019-04-14T04:50:40.926Z,4.70
2019-04-14T04:53:15.914Z,4.60
2019-04-14T04:55:50.672Z,4.60
2019-04-14T04:58:26.247Z,4.60
2019-04-14T05:01:01.470Z,4.70
2019-04-14T05:03:36.413Z,4.80
2019-04-14T05:07:03.164Z,4.70
2019-04-14T05:09:57.764Z,4.60
2019-04-14T05:12:54.842Z,4.60
2019-04-14T05:16:04.236Z,4.60
2019-04-14T05:18:39.848Z,4.60
2019-04-14T05:21:14.924Z,4.50
2019-04-14T05:23:49.734Z,4.50
2019-04-14T05:26:24.493Z,4.40
2019-04-14T05:28:59.371Z,4.40
2019-04-14T05:31:34.117Z,4.50
2019-04-14T05:34:08.833Z,4.40
2019-04-14T05:36:43.722Z,4.40
2019-04-14T05:39:19.983Z,4.40
2019-04-14T05:42:04.335Z,4.40
2019-04-14T05:44:31.895Z,4.40
2019-04-14T05:47:06.836Z,4.50
2019-04-14T05:49:46.888Z,4.40
2019-04-14T05:52:18.501Z,4.40
2019-04-14T05:54:53.647Z,4.40
2019-04-14T05:57:28.456Z,4.40
2019-04-14T06:00:03.859Z,4.50
2019-04-14T06:02:39.887Z,4.40
2019-04-14T06:05:14.863Z,4.40
2019-04-14T06:07:49.592Z,4.50
2019-04-14T06:10:24.417Z,4.50
2019-04-14T06:12:59.144Z,4.50
2019-04-14T06:15:34.657Z,4.50
2019-04-14T06:18:09.470Z,4.40
2019-04-14T06:20:44.319Z,4.40
2019-04-14T06:23:19.031Z,4.40
2019-04-14T06:25:53.856Z,4.40
2019-04-14T06:28:28.683Z,4.40
2019-04-14T06:31:21.596Z,4.30
2019-04-14T06:34:16.624Z,4.30
2019-04-14T06:37:02.868Z,4.50
2019-04-14T06:39:41.987Z,4.40
2019-04-14T06:42:16.801Z,4.20
2019-04-14T06:44:51.568Z,4.30
2019-04-14T06:47:26.327Z,4.40
2019-04-14T06:50:01.054Z,4.40
2019-04-14T06:52:36.912Z,4.40
2019-04-14T06:55:11.647Z,4.40
2019-04-14T06:57:46.404Z,4.40
2019-04-14T07:00:21.215Z,4.40
2019-04-14T07:02:55.962Z,4.50
2019-04-14T07:05:30.700Z,4.50
2019-04-14T07:08:05.516Z,4.40
2019-04-14T07:10:40.312Z,4.40
2019-04-14T07:13:19.253Z,4.50
2019-04-14T07:15:52.671Z,4.60
2019-04-14T07:18:27.504Z,4.60
2019-04-14T07:21:02.430Z,4.60
2019-04-14T07:23:37.250Z,4.50
2019-04-14T07:26:12.060Z,4.40
2019-04-14T07:28:56.712Z,4.50
2019-04-14T07:31:47.021Z,4.50
2019-04-14T07:34:39.769Z,4.40
2019-04-14T07:37:35.231Z,4.30
2019-04-14T07:40:28.002Z,4.40
2019-04-14T07:43:09.391Z,4.50
2019-04-14T07:45:55.150Z,4.40
2019-04-14T07:48:41.311Z,4.50
2019-04-14T07:51:26.213Z,4.50
2019-04-14T07:54:08.625Z,4.60
2019-04-14T07:57:11.343Z,4.60
2019-04-14T08:00:20.292Z,4.60
2019-04-14T08:02:59.619Z,4.60
2019-04-14T08:05:39.102Z,4.60
2019-04-14T08:08:13.850Z,4.60
2019-04-14T08:10:48.586Z,4.70
2019-04-14T08:13:23.483Z,4.60
2019-04-14T08:15:58.244Z,4.60
2019-04-14T08:18:33.079Z,4.60
2019-04-14T08:21:07.944Z,4.60
2019-04-14T08:23:42.758Z,4.70
2019-04-14T08:26:17.562Z,4.60
2019-04-14T08:28:52.376Z,4.70
2019-04-14T08:31:27.248Z,4.70
2019-04-14T08:34:02.140Z,4.60
2019-04-14T08:36:37.020Z,4.70
2019-04-14T08:39:11.852Z,4.80
2019-04-14T08:41:54.572Z,4.90
2019-04-14T08:44:35.438Z,5.00
2019-04-14T08:47:24.964Z,5.10
2019-04-14T08:50:08.009Z,5.10
2019-04-14T08:52:58.583Z,5.20
2019-04-14T08:55:55.592Z,5.20
2019-04-14T08:58:53.208Z,5.30
2019-04-14T09:01:39.965Z,5.10
2019-04-14T09:04:30.761Z,5.10
2019-04-14T09:07:25.707Z,5.20
2019-04-14T09:10:09.772Z,5.20
2019-04-14T09:12:45.299Z,5.30
2019-04-14T09:15:20.168Z,5.20
2019-04-14T09:17:54.912Z,5.30
2019-04-14T09:20:30.031Z,5.30
2019-04-14T09:23:04.989Z,5.20
2019-04-14T09:25:39.721Z,5.40
2019-04-14T09:28:14.438Z,5.40
2019-04-14T09:30:49.314Z,5.50
2019-04-14T09:33:24.044Z,5.60
2019-04-14T09:35:58.903Z,5.70
2019-04-14T09:38:33.712Z,5.70
2019-04-14T09:41:08.446Z,5.70
2019-04-14T09:43:43.279Z,5.70
2019-04-14T09:46:18.234Z,5.60
2019-04-14T09:48:53.232Z,5.40
2019-04-14T09:51:27.973Z,5.30
2019-04-14T09:54:02.773Z,5.30
2019-04-14T09:56:37.531Z,5.30
2019-04-14T09:59:12.387Z,5.30
2019-04-14T10:01:47.448Z,5.50
2019-04-14T10:04:22.168Z,5.40
2019-04-14T10:06:57.013Z,5.10
2019-04-14T10:09:31.987Z,5.40
2019-04-14T10:12:06.846Z,5.40
2019-04-14T10:14:41.567Z,5.60
2019-04-14T10:17:16.429Z,5.50
2019-04-14T10:19:51.406Z,5.70
2019-04-14T10:22:33.696Z,5.70
2019-04-14T10:25:02.619Z,5.50
2019-04-14T10:27:37.389Z,5.70
2019-04-14T10:30:12.258Z,5.60
2019-04-14T10:32:47.000Z,5.40
2019-04-14T10:35:21.819Z,5.30
2019-04-14T10:37:56.611Z,5.40
2019-04-14T10:40:31.507Z,5.40
2019-04-14T10:43:06.822Z,5.70
2019-04-14T10:45:41.555Z,5.80
2019-04-14T10:48:16.366Z,5.80
2019-04-14T10:50:51.291Z,5.80
2019-04-14T10:53:26.217Z,5.80
2019-04-14T10:56:01.046Z,6.00
2019-04-14T10:58:35.815Z,6.00
2019-04-14T11:01:13.987Z,6.10
2019-04-14T11:03:48.774Z,6.10
2019-04-14T11:06:34.494Z,6.10
2019-04-14T11:09:13.876Z,6.10
2019-04-14T11:11:48.704Z,6.20
2019-04-14T11:14:23.588Z,6.20
2019-04-14T11:16:58.327Z,6.20
2019-04-14T11:19:33.205Z,6.20
2019-04-14T11:22:08.776Z,6.10
2019-04-14T11:24:43.496Z,6.30
2019-04-14T11:27:18.263Z,6.30
2019-04-14T11:29:54.120Z,6.20
2019-04-14T11:32:48.696Z,6.30
2019-04-14T11:35:26.940Z,6.30
2019-04-14T11:38:17.035Z,6.40
2019-04-14T11:40:57.041Z,6.40
2019-04-14T11:43:31.891Z,6.50
2019-04-14T11:46:06.750Z,6.50
2019-04-14T11:48:42.047Z,6.40
2019-04-14T11:51:16.971Z,6.40
2019-04-14T11:53:51.762Z,6.60
2019-04-14T11:56:26.667Z,6.60
2019-04-14T11:59:03.634Z,6.70
2019-04-14T12:02:03.635Z,6.80
2019-04-14T12:04:51.586Z,6.90
2019-04-14T12:07:42.231Z,6.90
2019-04-14T12:10:23.294Z,6.90
2019-04-14T12:12:58.043Z,6.80
2019-04-14T12:15:34.432Z,7.10
2019-04-14T12:18:09.394Z,7.10
2019-04-14T12:20:44.323Z,7.10
2019-04-14T12:23:19.144Z,7.30
2019-04-14T12:26:05.316Z,7.40
2019-04-14T12:28:32.518Z,7.30
2019-04-14T12:31:08.688Z,7.40
2019-04-14T12:33:43.713Z,7.50
2019-04-14T12:36:19.106Z,7.70
2019-04-14T12:38:54.892Z,7.70
2019-04-14T12:41:38.395Z,7.60
2019-04-14T12:44:31.012Z,7.70
2019-04-14T12:47:27.844Z,7.70
2019-04-14T12:50:03.717Z,7.90
2019-04-14T12:52:46.494Z,8.10
2019-04-14T12:55:25.957Z,8.10
2019-04-14T12:58:05.001Z,8.20
2019-04-14T13:01:02.323Z,8.20
2019-04-14T13:03:42.021Z,8.30
2019-04-14T13:06:17.140Z,8.50
2019-04-14T13:08:52.065Z,8.30
2019-04-14T13:11:27.023Z,8.20
2019-04-14T13:14:01.968Z,8.20
2019-04-14T13:16:36.950Z,8.30
2019-04-14T13:19:11.833Z,8.60
2019-04-14T13:21:46.786Z,8.80
2019-04-14T13:24:21.506Z,8.80
2019-04-14T13:26:56.472Z,8.90
2019-04-14T13:29:31.624Z,8.80
2019-04-14T13:32:08.425Z,8.90
2019-04-14T13:34:45.091Z,8.60
2019-04-14T13:37:20.010Z,8.70
2019-04-14T13:39:55.894Z,8.80
2019-04-14T13:42:30.824Z,8.90
2019-04-14T13:45:07.515Z,9.00
2019-04-14T13:47:42.445Z,8.80
2019-04-14T13:50:24.058Z,8.80
2019-04-14T13:53:03.328Z,8.80
2019-04-14T13:55:38.572Z,8.90
2019-04-14T13:58:14.445Z,8.90
2019-04-14T14:00:49.543Z,8.90
2019-04-14T14:03:29.469Z,9.00
2019-04-14T14:06:04.626Z,9.10
2019-04-14T14:08:39.350Z,8.90
2019-04-14T14:11:23.419Z,9.00
2019-04-14T14:14:20.068Z,9.10
2019-04-14T14:17:10.972Z,9.00
2019-04-14T14:19:53.446Z,9.00
2019-04-14T14:23:02.536Z,9.20
2019-04-14T14:25:59.347Z,9.20
2019-04-14T14:28:34.074Z,9.10
2019-04-14T14:31:08.883Z,9.10
2019-04-14T14:33:45.361Z,9.10
2019-04-14T14:36:20.287Z,9.10
2019-04-14T14:38:55.358Z,9.30
2019-04-14T14:41:33.279Z,9.40
2019-04-14T14:44:08.127Z,9.40
2019-04-14T14:47:11.455Z,9.50
2019-04-14T14:50:04.804Z,9.60
2019-04-14T14:52:41.522Z,9.70
2019-04-14T14:55:16.480Z,9.70
2019-04-14T14:57:51.219Z,9.60
2019-04-14T15:00:36.196Z,9.80
2019-04-14T15:03:11.306Z,9.80
2019-04-14T15:05:46.035Z,9.90
2019-04-14T15:08:20.930Z,10.10
2019-04-14T15:10:55.664Z,10.10
2019-04-14T15:13:30.551Z,10.10
2019-04-14T15:16:06.515Z,10.10
2019-04-14T15:18:42.348Z,10.20
2019-04-14T15:21:18.203Z,10.20
2019-04-14T15:23:53.097Z,10.30
2019-04-14T15:26:27.975Z,10.30
2019-04-14T15:29:02.911Z,10.20
2019-04-14T15:31:37.660Z,10.30
2019-04-14T15:34:12.501Z,10.40
2019-04-14T15:36:47.231Z,10.50
2019-04-14T15:39:21.967Z,10.60
2019-04-14T15:41:56.707Z,10.30
2019-04-14T15:44:31.470Z,10.40
2019-04-14T15:47:06.243Z,10.30
2019-04-14T15:49:40.991Z,10.30
2019-04-14T15:52:15.805Z,10.30
2019-04-14T15:54:53.025Z,10.40
2019-04-14T15:57:32.516Z,10.50
2019-04-14T16:00:26.348Z,10.40
2019-04-14T16:03:26.031Z,10.40
2019-04-14T16:06:23.997Z,10.50
2019-04-14T16:09:17.922Z,10.50
2019-04-14T16:12:14.585Z,10.70
2019-04-14T16:15:17.651Z,10.60
2019-04-14T16:18:23.843Z,10.70
2019-04-14T16:20:58.660Z,10.60
2019-04-14T16:23:33.603Z,10.60
2019-04-14T16:26:26.284Z,10.60
2019-04-14T16:29:12.990Z,10.70
2019-04-14T16:32:15.835Z,10.60
2019-04-14T16:34:56.729Z,10.70
2019-04-14T16:37:50.708Z,10.70
2019-04-14T16:40:25.531Z,10.60
2019-04-14T16:43:00.284Z,10.70
2019-04-14T16:45:35.244Z,10.80
2019-04-14T16:48:10.255Z,10.80
2019-04-14T16:50:46.368Z,10.80
2019-04-14T16:53:29.767Z,10.90
2019-04-14T16:56:23.896Z,10.90
2019-04-14T16:59:02.255Z,11.00
2019-04-14T17:01:39.836Z,11.00
2019-04-14T17:04:14.716Z,11.20
2019-04-14T17:06:49.603Z,11.10
2019-04-14T17:09:24.409Z,11.10
2019-04-14T17:11:59.565Z,11.20
2019-04-14T17:14:39.318Z,11.20
2019-04-14T17:17:42.001Z,11.20
2019-04-14T17:20:54.176Z,11.30
2019-04-14T17:23:36.120Z,11.40
2019-04-14T17:26:17.169Z,11.50
2019-04-14T17:28:56.934Z,11.60
2019-04-14T17:31:51.183Z,11.60
2019-04-14T17:34:52.260Z,11.60
2019-04-14T17:38:04.101Z,11.70
2019-04-14T17:40:57.310Z,11.70
2019-04-14T17:43:39.036Z,11.80
2019-04-14T17:46:26.244Z,11.80
2019-04-14T17:49:18.952Z,11.80
2019-04-14T17:52:12.907Z,11.80
2019-04-14T17:55:02.479Z,11.80
2019-04-14T17:58:00.195Z,11.80
2019-04-14T18:00:47.514Z,11.70
2019-04-14T18:03:40.711Z,11.70
2019-04-14T18:06:40.696Z,11.60
2019-04-14T18:09:36.248Z,11.50
2019-04-14T18:12:30.076Z,11.40
2019-04-14T18:15:11.984Z,11.40
2019-04-14T18:18:07.654Z,11.30
2019-04-14T18:20:47.898Z,11.30
2019-04-14T18:23:22.730Z,11.30
2019-04-14T18:25:57.468Z,11.20
2019-04-14T18:28:57.525Z,11.20
2019-04-14T18:31:54.343Z,11.10
2019-04-14T18:34:37.708Z,11.10
2019-04-14T18:37:32.185Z,11.00
2019-04-14T18:40:10.763Z,11.00
2019-04-14T18:43:02.599Z,11.00
2019-04-14T18:45:44.667Z,10.90
2019-04-14T18:48:26.783Z,10.70
2019-04-14T18:51:10.025Z,10.70
2019-04-14T18:54:00.615Z,10.70
2019-04-14T18:56:54.983Z,10.60
2019-04-14T18:59:41.400Z,10.60
2019-04-14T19:02:18.392Z,10.50
2019-04-14T19:04:53.284Z,10.50
2019-04-14T19:07:28.399Z,10.40
2019-04-14T19:10:03.915Z,10.20
2019-04-14T19:12:46.792Z,10.10
2019-04-14T19:15:42.042Z,9.90
2019-04-14T19:18:28.415Z,10.10
2019-04-14T19:21:15.461Z,9.80
2019-04-14T19:23:50.380Z,9.60
2019-04-14T19:26:28.260Z,9.60
2019-04-14T19:29:03.230Z,9.40
2019-04-14T19:31:38.147Z,9.60
2019-04-14T19:34:12.919Z,9.70
2019-04-14T19:36:47.865Z,9.60
2019-04-14T19:39:24.859Z,9.70
2019-04-14T19:41:59.668Z,9.60
2019-04-14T19:44:34.647Z,9.50
2019-04-14T19:47:09.429Z,9.60
2019-04-14T19:49:44.235Z,9.60
2019-04-14T19:52:19.076Z,9.60
2019-04-14T19:54:53.952Z,9.50
2019-04-14T19:57:29.042Z,9.50
2019-04-14T20:00:05.870Z,9.30
2019-04-14T20:02:40.967Z,9.30
2019-04-14T20:05:15.989Z,9.30
2019-04-14T20:07:51.039Z,9.30
2019-04-14T20:10:28.754Z,9.10
2019-04-14T20:13:03.656Z,8.90
2019-04-14T20:15:57.568Z,8.70
2019-04-14T20:19:10.239Z,8.70
2019-04-14T20:21:58.879Z,8.60
2019-04-14T20:24:50.781Z,8.70
2019-04-14T20:27:35.440Z,8.70
2019-04-14T20:30:14.469Z,8.80
2019-04-14T20:32:50.483Z,8.80
2019-04-14T20:35:25.300Z,8.60
2019-04-14T20:38:00.219Z,8.40
2019-04-14T20:40:35.175Z,8.30
2019-04-14T20:43:09.899Z,8.30
2019-04-14T20:45:44.717Z,8.40
2019-04-14T20:48:19.487Z,8.40
2019-04-14T20:50:54.234Z,8.40
2019-04-14T20:53:29.059Z,8.30
2019-04-14T20:56:03.880Z,8.40
2019-04-14T20:58:38.815Z,8.20
2019-04-14T21:01:15.222Z,8.20
2019-04-14T21:03:58.268Z,8.30
2019-04-14T21:06:52.107Z,8.10
2019-04-14T21:09:52.119Z,7.80
2019-04-14T21:12:54.953Z,7.60
2019-04-14T21:15:45.461Z,7.40
2019-04-14T21:18:42.784Z,7.50
2019-04-14T21:21:23.021Z,7.50
2019-04-14T21:24:19.801Z,7.30
2019-04-14T21:27:00.477Z,7.20
2019-04-14T21:29:43.480Z,7.10
2019-04-14T21:32:21.863Z,7.30
2019-04-14T21:35:04.982Z,7.30
2019-04-14T21:38:01.652Z,7.40
2019-04-14T21:40:51.520Z,7.30
2019-04-14T21:43:26.248Z,7.20
2019-04-14T21:46:01.004Z,7.00
2019-04-14T21:48:35.722Z,7.20
2019-04-14T21:51:12.143Z,7.20
2019-04-14T21:53:47.804Z,7.20
2019-04-14T21:56:35.050Z,7.20
2019-04-14T21:59:16.277Z,7.30
2019-04-14T22:02:09.128Z,7.20
2019-04-14T22:05:05.911Z,7.10
2019-04-14T22:07:58.545Z,7.00
2019-04-14T22:10:43.207Z,6.90
2019-04-14T22:13:18.037Z,7.00
2019-04-14T22:15:52.908Z,7.00
2019-04-14T22:18:27.740Z,6.90
2019-04-14T22:21:02.552Z,7.10
2019-04-14T22:23:37.665Z,7.00
2019-04-14T22:26:25.166Z,7.00
2019-04-14T22:28:49.014Z,7.00
2019-04-14T22:31:23.852Z,7.00
2019-04-14T22:33:58.595Z,6.90
2019-04-14T22:36:33.360Z,6.70
2019-04-14T22:39:09.899Z,6.80
2019-04-14T22:41:45.722Z,7.10
2019-04-14T22:44:20.617Z,7.20
2019-04-14T22:46:55.351Z,7.30
2019-04-14T22:49:30.083Z,7.40
2019-04-14T22:52:05.116Z,7.50
2019-04-14T22:54:39.827Z,7.60
2019-04-14T22:57:14.571Z,7.60
2019-04-14T22:59:49.369Z,7.70
2019-04-14T23:02:49.217Z,7.50
2019-04-14T23:05:41.761Z,7.50
2019-04-14T23:08:47.742Z,7.50
2019-04-14T23:11:33.260Z,7.40
2019-04-14T23:14:25.860Z,7.30
2019-04-14T23:17:19.285Z,7.20
2019-04-14T23:20:12.117Z,7.10
2019-04-14T23:22:57.747Z,7.10
2019-04-14T23:25:32.766Z,7.20
2019-04-14T23:28:07.578Z,7.10
2019-04-14T23:30:42.372Z,7.20
2019-04-14T23:33:17.202Z,7.10
2019-04-14T23:35:52.033Z,7.10
2019-04-14T23:38:26.851Z,7.20
2019-04-14T23:41:01.584Z,7.10
2019-04-14T23:43:36.477Z,7.20
2019-04-14T23:46:11.292Z,7.10
2019-04-14T23:48:46.092Z,7.10
2019-04-14T23:51:20.848Z,6.90
2019-04-14T23:53:56.104Z,6.60
2019-04-14T23:56:31.020Z,6.40
2019-04-14T23:59:05.987Z,6.60
